Tiempo atmosférico en la estación meteorológica de Melilla, Melilla (47 m.)



Fecha
DESCASC
Temp. máxima en grados centígrados (hora)
DESCASC
Temp. mínima en grados centígrados (hora)
DESCASC
Temp. media en grados centígrados
DESCASC
Racha de viento máxima en m/sg (hora)
DESCASC
Velocidad máxima media en intervalos de 10 minutos(hora)
DESCASC
Precipitaciones diarias en mm
DESCASC
Precipitaciones de 00:00 a 06:00 en mm
DESCASC
Precipitaciones de 06:00 a 12:00 en mm
DESCASC
Precipitaciones de 12:00 a 18:00 en mm
DESCASC
Precipitaciones de 18:00 a 24:00 en mm
DESCASC
25-01-2020 19.5 (13:30) 10.6 (05:50) 15.1 12.78 (12:20) 7.78 (12:20) 0 0 0 0 0
24-01-2020 19.1 (14:40) 10.9 (07:20) 15 6.39 (04:00) 3.89 (14:00) 0 0 0 0 0
23-01-2020 19.9 (14:30) 9 (04:40) 14.4 5.83 (15:30) 4.17 (15:30) 0 0 0 0 0
22-01-2020 18.6 (14:10) 9.8 (00:00) 14.2 6.67 (13:50) 3.61 (13:10) 0 0 0 0 0
21-01-2020 15.1 (13:00) 9.5 (00:00) 12.3 9.44 (07:00) 5.56 (05:40) 4.2 1.2 3 0 0
20-01-2020 12.2 (15:00) 9.6 (00:00) 10.9 11.94 (01:40) 8.33 (02:30) 1.8 1 0.8 0 0
19-01-2020 17.1 (01:30) 10.3 (00:00) 13.7 19.17 (09:50) 10 (23:20) 2 1.6 0 0 0.4
18-01-2020 18.8 (12:40) 10.1 (00:00) 14.4 5.28 (14:00) 3.33 (23:20) 0 0 0 0 0
17-01-2020 20.8 (14:20) 8.9 (00:00) 14.8 7.5 (14:10) 3.61 (11:50) 0 0 0 0 0
16-01-2020 18.5 (13:50) 8.1 (00:00) 13.3 4.72 (13:30) 3.33 (13:30) 0 0 0 0 0
15-01-2020 19.7 (14:10) 9 (00:00) 14.4 4.17 (14:10) 2.78 (14:10) 0 0 0 0 0
14-01-2020 16.9 (12:40) 8.5 (00:00) 12.7 5 (01:40) 3.33 (01:50) 0 0 0 0 0
13-01-2020 17.1 (15:00) 7 (00:00) 12.1 6.67 (13:50) 4.17 (13:50) 0 0 0 0 0
12-01-2020 16.9 (13:00) 9 (00:00) 12.9 5.83 (01:10) 3.33 (14:40) 0 0 0 0 0
11-01-2020 14.6 (14:30) 11.4 (00:00) 13 13.06 (11:50) 8.06 (12:10) 2.8 0 0.2 0.2 2.4
10-01-2020 17 (15:00) 9.7 (00:00) 13.3 10 (14:50) 5 (12:50) 3.8 0 0 0 3.8
09-01-2020 16 (15:40) 10.1 (00:00) 13.1 3.89 (16:10) 2.5 (16:10) 0 0 0 0 0
08-01-2020 16 (12:20) 7.3 (00:00) 11.7 5 (16:50) 3.61 (16:20) 0 0 0 0 0
07-01-2020 16.4 (12:30) 8.9 (00:00) 12.6 5.83 (12:10) 4.17 (16:10) 0 0 0 0 0
06-01-2020 16.8 (14:20) 11.6 (00:00) 14.2 5 (03:20) 3.61 (03:20) 0 0 0 0 0
05-01-2020 16 (13:50) 10.4 (00:00) 13.2 6.39 (14:50) 4.17 (15:40) 0 0 0 0 0
04-01-2020 17.5 (12:30) 8.8 (00:00) 13.2 5.83 (22:30) 3.61 (22:10) 0 0 0 0 0
03-01-2020 15.4 (12:40) 9.9 (00:00) 12.6 5 (07:30) 3.33 (07:50) 0 0 0 0 0
02-01-2020 16.2 (11:40) 9.5 (00:00) 12.9 4.44 (13:00) 2.78 (13:40) 0 0 0 0 0
01-01-2020 16.6 (13:20) 8.5 (00:00) 12.6 5 (13:20) 3.33 (14:10) 0 0 0 0 0
31-12-2019 16.3 (11:50) 10.3 (00:00) 13.3 5.83 (14:20) 3.89 (13:30) 0 0 0 0 0
30-12-2019 16.8 (15:50) 12.6 (00:00) 14.7 6.39 (16:30) 4.17 (17:00) 0 0 0 0 0
29-12-2019 17.4 (11:20) 12.6 (00:00) 15 5.83 (16:30) 4.17 (16:30) 0 0 0 0 0
28-12-2019 17.7 (14:20) 13.5 (00:00) 15.6 6.39 (22:30) 4.44 (23:00) 0 0 0 0 0

Gráficas

Temp. máximas Temp. mínimas Temp. medias Precipitaciones Rachas de viento máximas Velocidades máximas media en intervalos de 10 minutos

Datos horarios

Fecha y hora oficial Temperatura (ºC) Velocidad del viento (km/h) Dirección del viento Racha (km/h) Dirección de racha Precipitación (mm) Presión (hPa) Tendencia (hPa) Humedad (%)
2020-01-26 23:00:00 13.6 18 Oeste 27 Oeste 0 1020 0.7 71
2020-01-26 22:00:00 13.2 13 Oeste 21 Oeste 0 1020 1.6 74
2020-01-26 21:00:00 13.3 13 Sudoeste 19 Sudoeste 0 1019.7 1.5 74
2020-01-26 20:00:00 13.8 5 Sudoeste 26 Oeste 0 1019.3 1.2 71
2020-01-26 19:00:00 14.2 8 Oeste 24 Oeste 0 1018.4 0.5 70
2020-01-26 18:00:00 15.2 8 Oeste 27 Oeste 0 1018.2 0 68
2020-01-26 17:00:00 15.7 10 Oeste 30 Oeste 0 1018.1 -0.5 65
2020-01-26 16:00:00 16.4 13 Oeste 30 Oeste 0 1017.9 -1.2 63
2020-01-26 15:00:00 16.1 9 Oeste 30 Noroeste 0 1018.2 -1 68
2020-01-26 14:00:00 16.4 9 Oeste 31 Oeste 0 1018.6 -0.2 71
2020-01-26 13:00:00 17.1 14 Oeste 30 Oeste 0 1019.1 1 71
2020-01-26 12:00:00 17.1 12 Oeste 26 Sudoeste 0 1019.2 1.7 67
2020-01-26 11:00:00 16.6 12 Oeste 27 Sudoeste 0 1018.8 2.1 70
2020-01-26 10:00:00 14.9 9 Sudoeste 16 Sudoeste 0 1018.1 1.9 75
2020-01-26 09:00:00 13 11 Sudoeste 22 Oeste 0 1017.5 1.9 79
2020-01-26 08:00:00 12.7 12 Oeste 19 Sudoeste 0 1016.7 1.4 82
2020-01-26 07:00:00 11.7 4 Noroeste 13 Oeste 0 1016.2 0.9 79
2020-01-26 06:00:00 12.5 9 Oeste 17 Oeste 0 1015.6 0.6 73
2020-01-26 05:00:00 12.5 10 Oeste 19 Oeste 0 1015.3 0.8 72
2020-01-26 04:00:00 11.9 5 Oeste 12 Oeste 0 1015.3 0.9 72
2020-01-26 03:00:00 11.4 2 Oeste 8 Noroeste 0 1015 0.8 77
2020-01-26 02:00:00 12.1 3 Oeste 6 Noroeste 0 1014.5 0.6 78
2020-01-26 01:00:00 12.8 3 Sudoeste 11 Noroeste 0 1014.4 0.9 82
2020-01-26 00:00:00 12.6 4 Noroeste 7 Oeste 0 1014.2 1.3 85
2020-01-25 23:00:00 13.4 7 Sudoeste 15 Oeste 0 1013.9 1.6 80
2020-01-25 22:00:00 14.1 9 Oeste 17 Sudoeste 0 1013.5 1.7 76
2020-01-25 21:00:00 14.1 7 Sudoeste 15 Sudoeste 0 1012.9 1.8 78
2020-01-25 20:00:00 14.3 11 Oeste 17 Oeste 0 1012.3 1.5 72
2020-01-25 19:00:00 15.3 9 Sudoeste 16 Sudoeste 0 1011.8 1.7 62
2020-01-25 18:00:00 16.5 6 Oeste 15 Oeste 0 1011.1 0.9 55
2020-01-25 17:00:00 17.8 12 Sudoeste 18 Sudoeste 0 1010.8 -0.2 48
2020-01-25 16:00:00 18.2 12 Noroeste 24 Noroeste 0 1010.1 -1.8 48
2020-01-25 15:00:00 19.4 12 Sudoeste 27 Oeste 0 1010.2 -2.3 44
2020-01-25 14:00:00 19 12 Sudoeste 33 Sudoeste 0 1011 -1.4 44
2020-01-25 13:00:00 19.1 23 Sudoeste 46 Sudoeste 0 1011.9 -0.2 44
2020-01-25 12:00:00 17.7 15 Sudoeste 24 Sudoeste 0 1012.5 1.2 46
2020-01-25 11:00:00 15.7 4 Sudeste 29 Sudoeste 0 1012.4 1.6 68
2020-01-25 10:00:00 13.4 4 Sudeste 10 Sudoeste 0 1012.1 1.4 78
2020-01-25 09:00:00 10.9 4 Oeste 7 Sudoeste 0 1011.3 0.5 87
2020-01-25 08:00:00 10.8 4 Sudoeste 10 Sudoeste 0 1010.8 -0.3 86
2020-01-25 07:00:00 10.6 4 Sudoeste 9 Sudoeste 0 1010.7 -0.6 87
2020-01-25 06:00:00 10.7 7 Sudoeste 10 Sudoeste 0 1010.8 -0.7 82
2020-01-25 05:00:00 11.1 5 Sudoeste 10 Sudoeste 0 1011.1 -0.6 81
2020-01-25 04:00:00 11.5 6 Sudoeste 8 Sudoeste 0 1011.3 -1 81
2020-01-25 03:00:00 12.4 4 Noroeste 8 Este 0 1011.5 -1.3 80
2020-01-25 02:00:00 12.2 7 Este 11 Este 0 1011.7 -1.3 77
2020-01-25 01:00:00 12.3 8 Sudeste 12 Sudeste 0 1012.3 -0.8 72
2020-01-25 00:00:00 12.3 8 Sudeste 9 Sudeste 0 1012.8 -0.3 74
2020-01-24 23:00:00 12.7 4 Este 9 Sudeste 0 1013 0.2 82
2020-01-24 22:00:00 13 5 Sudeste 11 Sudeste 0 1013.1 1 84
2020-01-24 21:00:00 13.5 6 Sudeste 12 Sur 0 1013.1 1.5 85
2020-01-24 20:00:00 13.6 7 Sudeste 12 Este 0 1012.8 1 85
2020-01-24 19:00:00 14.5 9 Sudeste 15 Sudeste 0 1012.1 0 83
2020-01-24 18:00:00 15.2 12 Este 16 Este 0 1011.6 -0.7 81
2020-01-24 17:00:00 16.3 11 Este 17 Este 0 1011.8 -1.2 66
2020-01-24 16:00:00 17.2 12 Este 20 Este 0 1012.1 -2 67
2020-01-24 15:00:00 18.1 14 Este 19 Este 0 1012.3 -2.5 49
2020-01-24 14:00:00 18.4 14 Sudeste 21 Sudeste 0 1013 -1.8 49
2020-01-24 13:00:00 18.1 9 Sudeste 16 Este 0 1014.1 -0.3 52
2020-01-24 12:00:00 17.5 7 Este 12 Sudeste 0 1014.8 0.8 55
2020-01-24 11:00:00 16.7 5 Este 12 Este 0 1014.8 1.3 60
2020-01-24 10:00:00 14.2 5 Sudoeste 10 Norte 0 1014.4 1.3 68
2020-01-24 09:00:00 11.9 6 Oeste 12 Noroeste 0 1014 1.2 74
2020-01-24 08:00:00 11 8 Oeste 13 Norte 0 1013.5 0.6 78
2020-01-24 07:00:00 11.4 5 Noroeste 9 Norte 0 1013.1 0.3 76
2020-01-24 06:00:00 12 2 Norte 15 Norte 0 1012.8 0.2 79
2020-01-24 05:00:00 11.8 4 Oeste 16 Oeste 0 1012.9 0.2 75
2020-01-24 04:00:00 13 13 Oeste 23 Oeste 0 1012.8 -0.2 64
2020-01-24 03:00:00 11.8 6 Noroeste 11 Noroeste 0 1012.6 -0.1 88
2020-01-24 02:00:00 11.9 6 Sudoeste 11 Sudoeste 0 1012.7 0 77
2020-01-24 01:00:00 11.4 6 Sudoeste 10 Norte 0 1013 0.8 78
2020-01-24 00:00:00 12.1 4 Oeste 11 Oeste 0 1012.7 0.8 78
2020-01-23 23:00:00 13.3 4 Sudoeste 8 Sudoeste 0 1012.7 1 81
2020-01-23 22:00:00 13.3 4 Sur 8 Sudeste 0 1012.2 0.9 82
2020-01-23 21:00:00 13.8 5 Sudeste 10 Este 0 1011.9 1 79
2020-01-23 20:00:00 14.2 5 Sudeste 12 Sudeste 0 1011.7 1.3 78
2020-01-23 19:00:00 14.6 7 Este 14 Sudeste 0 1011.3 1.3 81
2020-01-23 18:00:00 15.3 10 Este 14 Este 0 1010.9 1 75
2020-01-23 17:00:00 15.5 9 Este 18 Nordeste 0 1010.4 0.1 69
2020-01-23 16:00:00 16.5 12 Este 21 Este 0 1010 -1 61
2020-01-23 15:00:00 19.6 13 Sudeste 18 Sudeste 0 1009.9 -1.8 43
2020-01-23 14:00:00 18.8 6 Este 16 Este 0 1010.3 -1.4 46
2020-01-23 13:00:00 18.6 7 Este 19 Sudeste 0 1011 -0.4 49
2020-01-23 12:00:00 17.4 10 Sudeste 15 Este 0 1011.7 0.7 51
2020-01-23 11:00:00 16.1 4 Sur 7 Sur 0 1011.7 1.1 57
2020-01-23 10:00:00 12.5 3 Sudoeste 11 Oeste 0 1011.4 1.1 67
2020-01-23 09:00:00 11.1 4 Oeste 16 Sudoeste 0 1011 0.7 67
2020-01-23 08:00:00 10.9 5 Norte 15 Noroeste 0 1010.6 0.2 70
2020-01-23 07:00:00 10 7 Norte 14 Noroeste 0 1010.3 -0.4 73
2020-01-23 06:00:00 9.6 6 Oeste 10 Norte 0 1010.3 -0.7 77
2020-01-23 05:00:00 9.1 5 Sudoeste 12 Norte 0 1010.4 -0.9 81
2020-01-23 04:00:00 9.5 4 Oeste 10 Sudoeste 0 1010.7 -0.8 80
2020-01-23 03:00:00 9.9 4 Oeste 8 Sudoeste 0 1011 -0.4 83
2020-01-23 02:00:00 10.3 6 Sudoeste 10 Este 0 1011.3 -0.1 82
2020-01-23 01:00:00 10.4 2 Nordeste 6 Sudeste 0 1011.5 0.5 79
2020-01-23 00:00:00 11 2 Sur 7 Noroeste 0 1011.4 0.5 78
2020-01-22 23:00:00 10.8 4 Sudoeste 8 Sudoeste 0 1011.4 1 72
2020-01-22 22:00:00 11.2 4 Oeste 8 Sudoeste 0 1011 1.2 72
2020-01-22 21:00:00 11.7 4 Oeste 11 Sudoeste 0 1010.9 1.9 69
2020-01-22 20:00:00 12.5 3 Noroeste 14 Oeste 0 1010.4 2.1 68
2020-01-22 19:00:00 13.9 8 Oeste 15 Oeste 0 1009.8 1.8 60
2020-01-22 18:00:00 15.9 5 Oeste 16 Oeste 0 1009 1.1 49
2020-01-22 17:00:00 15.7 5 Oeste 16 Noroeste 0 1008.3 0.2 53
2020-01-22 16:00:00 16.8 8 Noroeste 18 Noroeste 0 1008 -0.9 49
2020-01-22 15:00:00 17.1 9 Noroeste 18 Noroeste 0 1007.9 -1.6 56
2020-01-22 14:00:00 18.4 7 Sur 24 Sudoeste 0 1008.1 -1.2 48
2020-01-22 13:00:00 17.3 11 Sudeste 20 Este 0 1008.9 0 60
2020-01-22 12:00:00 16.6 9 Sudeste 15 Sudeste 0 1009.5 0.9 71
2020-01-22 11:00:00 15.8 4 Sudeste 9 Sudeste 0 1009.3 1 72
2020-01-22 10:00:00 12.6 3 Este 6 Sur 0 1008.9 1 84
2020-01-22 09:00:00 10.6 4 Sudoeste 9 Sudoeste 0 1008.6 1 83
2020-01-22 08:00:00 10.1 7 Sudoeste 10 Sudoeste 0 1008.3 0.4 83
2020-01-22 07:00:00 10 3 Este 6 Norte 0 1007.9 -0.1 86
2020-01-22 06:00:00 10.4 4 Sudeste 10 Sur 0 1007.6 -0.7 87
2020-01-22 05:00:00 10.6 5 Sudeste 11 Sur 0 1007.9 -0.6 89
2020-01-22 04:00:00 11.2 8 Sur 12 Sur 0 1008 -0.6 88
2020-01-22 03:00:00 11.2 5 Sudeste 8 Sudeste 0 1008.3 -0.4 88
2020-01-22 02:00:00 11 4 Sur 5 Sur 0 1008.5 0.3 87
2020-01-22 01:00:00 10.8 3 Sudoeste 5 Sudoeste 0 1008.6 0.5 88
2020-01-22 00:00:00 11.1 3 Sur 10 Sur 0 1008.7 0.7 85
2020-01-21 23:00:00 11.2 5 Sudoeste 8 Sur 0 1008.2 0.6 85
2020-01-21 22:00:00 11.6 4 Sur 12 Este 0 1008.1 1.3 85
2020-01-21 21:00:00 12.2 8 Este 13 Este 0 1008 1.9 83
2020-01-21 20:00:00 11.7 3 Sur 5 Sur 0 1007.6 1.9 84
2020-01-21 19:00:00 12.1 2 Oeste 10 Norte 0 1006.8 1.6 82
2020-01-21 18:00:00 12.5 8 Nordeste 15 Este 0 1006.1 1 80
2020-01-21 17:00:00 12.9 9 Nordeste 17 Nordeste 0 1005.7 0.1 78
2020-01-21 16:00:00 13.1 14 Nordeste 21 Nordeste 0 1005.2 -0.9 75
2020-01-21 15:00:00 14.1 10 Este 16 Nordeste 0 1005.1 -1.3 66
2020-01-21 14:00:00 14 9 Nordeste 16 Oeste 0 1005.6 -1 67
2020-01-21 13:00:00 15.1 6 Oeste 25 Sudoeste 0 1006.1 -0.1 63
2020-01-21 12:00:00 14.1 13 Sudoeste 21 Sudoeste 0 1006.4 0.4 69
2020-01-21 11:00:00 11.1 3 Norte 8 Norte 0.2 1006.6 1.6 81
2020-01-21 10:00:00 9.7 4 Oeste 14 Oeste 2.8 1006.2 1.5 89
2020-01-21 09:00:00 9.9 5 Noroeste 23 Oeste 0 1006 1.4 86
2020-01-21 08:00:00 9.9 13 Oeste 31 Oeste 0 1005 0 82
2020-01-21 07:00:00 9.6 17 Oeste 34 Oeste 0 1004.7 -0.8 88
2020-01-21 06:00:00 9.7 19 Sudoeste 31 Sudoeste 0 1004.6 -0.7 88
2020-01-21 05:00:00 9.6 18 Sudoeste 27 Oeste 0 1005 -0.6 89
2020-01-21 04:00:00 9.9 6 Oeste 23 Oeste 1.2 1005.5 -0.5 91
2020-01-21 03:00:00 10.2 9 Oeste 27 Oeste 0 1005.3 -1 87
2020-01-21 02:00:00 10.2 13 Oeste 21 Sudoeste 0 1005.6 -0.7 87
2020-01-21 01:00:00 10.1 13 Oeste 22 Oeste 0 1006 -0.2 87
2020-01-21 00:00:00 10.2 12 Oeste 19 Oeste 0 1006.3 0.1 86
2020-01-20 23:00:00 10.1 5 Oeste 11 Noroeste 0 1006.3 0.3 86
2020-01-20 22:00:00 10.3 7 Oeste 14 Oeste 0 1006.2 0.5 81
2020-01-20 21:00:00 10.6 9 Oeste 14 Oeste 0 1006.2 1.1 79
2020-01-20 20:00:00 10.1 8 Oeste 13 Oeste 0 1006 1.1 82
2020-01-20 19:00:00 10.5 3 Noroeste 13 Noroeste 0 1005.7 0.8 80
2020-01-20 18:00:00 11.1 7 Noroeste 19 Norte 0 1005.1 0.4 76
2020-01-20 17:00:00 12.1 11 Noroeste 19 Noroeste 0 1004.9 -0.1 72
2020-01-20 16:00:00 11.3 13 Norte 25 Nordeste 0 1004.9 -0.9 80
2020-01-20 15:00:00 12.1 7 Nordeste 25 Nordeste 0 1004.7 -1.8 71
2020-01-20 14:00:00 11.7 15 Norte 30 Norte 0 1005 -1.7 74
2020-01-20 13:00:00 11.4 20 Norte 35 Norte 0 1005.8 -0.4 74
2020-01-20 12:00:00 10.9 22 Norte 34 Norte 0 1006.5 0.1 76
2020-01-20 11:00:00 10.8 23 Nordeste 35 Norte 0 1006.7 0.4 75
2020-01-20 10:00:00 10.6 24 Nordeste 41 Norte 0.2 1006.2 0 75
2020-01-20 09:00:00 10.2 19 Nordeste 35 Nordeste 0 1006.4 -0.3 79
2020-01-20 08:00:00 10 24 Nordeste 40 Norte 0 1006.3 -0.6 78
2020-01-20 07:00:00 9.9 24 Nordeste 41 Nordeste 0.6 1006.2 -1.1 81
2020-01-20 06:00:00 9.7 17 Nordeste 33 Nordeste 0.4 1006.7 -1.1 87
2020-01-20 05:00:00 10.4 22 Nordeste 38 Nordeste 0 1006.9 -1.4 79
2020-01-20 04:00:00 10.6 26 Nordeste 39 Nordeste 0 1007.3 -1.4 78
2020-01-20 03:00:00 10.6 28 Nordeste 43 Este 0.2 1007.8 -0.7 80
2020-01-20 02:00:00 10.9 23 Nordeste 43 Nordeste 0 1008.3 0.2 80
2020-01-20 01:00:00 11.2 26 Nordeste 42 Nordeste 0.4 1008.7 1.2 75
2020-01-20 00:00:00 10.7 26 Nordeste 56 Nordeste 0.4 1008.5 1.1 90
2020-01-19 23:00:00 12.5 15 Noroeste 30 Oeste 0 1008.1 0.5 71
2020-01-19 22:00:00 12.6 19 Oeste 35 Sudoeste 0 1007.5 -0.5 69
2020-01-19 21:00:00 13.4 10 Oeste 30 Oeste 0 1007.4 -1.2 63
2020-01-19 20:00:00 13.6 9 Oeste 37 Oeste 0 1007.6 -0.9 62
2020-01-19 19:00:00 14 13 Noroeste 32 Noroeste 0 1008 0 64
2020-01-19 18:00:00 13.9 9 Oeste 37 Noroeste 0 1008.6 0.2 67
2020-01-19 17:00:00 13.9 12 Oeste 48 Oeste 0 1008.5 -0.5 69
2020-01-19 16:00:00 14.8 16 Oeste 48 Oeste 0 1008 -2.7 64
2020-01-19 15:00:00 14.5 15 Oeste 49 Oeste 0 1008.4 -3.1 66
2020-01-19 14:00:00 15.2 21 Oeste 60 Oeste 0 1009 -2.4 61
2020-01-19 13:00:00 15.4 20 Oeste 64 Oeste 0 1010.7 0.3 64
2020-01-19 12:00:00 15.2 28 Oeste 55 Oeste 0 1011.5 0.9 67
2020-01-19 11:00:00 15 26 Oeste 61 Oeste 0 1011.4 0 68
2020-01-19 10:00:00 14.9 30 Oeste 69 Oeste 0 1010.4 -1.2 59
2020-01-19 09:00:00 14.4 15 Oeste 48 Oeste 0 1010.6 -1.9 68
2020-01-19 08:00:00 14.6 18 Oeste 53 Oeste 0 1011.4 -1.2 72
2020-01-19 07:00:00 14.6 27 Oeste 64 Sudoeste 0 1011.6 -1.5 73
2020-01-19 06:00:00 14.3 21 Oeste 46 Oeste 1 1012.5 -2 85
2020-01-19 05:00:00 16.6 10 Oeste 29 Oeste 0 1012.6 -3.2 61
2020-01-19 04:00:00 15.3 9 Sudoeste 21 Sudoeste 0.6 1013.1 -4.1 62
2020-01-19 03:00:00 16.2 12 Sudoeste 19 Sudoeste 0 1014.5 -3.7 53
2020-01-19 02:00:00 16.1 6 Oeste 22 Oeste 0 1015.8 -3 62
2020-01-19 01:00:00 16.7 8 Oeste 17 Oeste 0 1017.2 -2.6 44
2020-01-19 00:00:00 16.9 10 Oeste 19 Sudoeste 0 1018.2 -2.1 43
2020-01-18 23:00:00 16 9 Oeste 15 Oeste 0 1018.8 -2.2 46
2020-01-18 22:00:00 14.5 3 Oeste 9 Sudoeste 0 1019.8 -1.6 69
2020-01-18 21:00:00 14.9 3 Sudeste 5 Oeste 0 1020.3 -1.4 69
2020-01-18 20:00:00 15.2 2 Sudoeste 7 Sudoeste 0 1021 -1.4 69
2020-01-18 19:00:00 15.5 3 Oeste 9 Noroeste 0 1021.4 -1.8 67
2020-01-18 18:00:00 16 3 Nordeste 12 Sudeste 0 1021.7 -1.8 64
2020-01-18 17:00:00 17.5 7 Sur 16 Sudoeste 0 1022.4 -1.6 57
2020-01-18 16:00:00 17.5 9 Oeste 19 Oeste 0 1023.2 -1.4 59
2020-01-18 15:00:00 17.6 6 Noroeste 18 Oeste 0 1023.5 -1.9 54
2020-01-18 14:00:00 17.9 9 Noroeste 19 Noroeste 0 1024 -1.3 49
2020-01-18 13:00:00 18.4 6 Oeste 17 Oeste 0 1024.6 -0.2 41
2020-01-18 12:00:00 18.1 5 Oeste 15 Noroeste 0 1025.4 0.8 45
2020-01-18 11:00:00 14.7 3 Este 5 Sudeste 0 1025.3 0.8 55
2020-01-18 10:00:00 13.8 3 Noroeste 8 Noroeste 0 1024.8 0.7 51
2020-01-18 09:00:00 10.9 3 Sudoeste 9 Oeste 0 1024.6 0.8 61
2020-01-18 08:00:00 10.6 5 Oeste 8 Oeste 0 1024.5 0.7 58
2020-01-18 07:00:00 10.3 3 Sudoeste 9 Sudoeste 0 1024.1 -0.4 60
2020-01-18 06:00:00 10.8 5 Oeste 10 Sudoeste 0 1023.8 -1.1 56
2020-01-18 05:00:00 11.5 6 Oeste 12 Sudoeste 0 1023.8 -1.6 53
2020-01-18 04:00:00 11.8 5 Oeste 10 Oeste 0 1024.5 -1 53
2020-01-18 03:00:00 12.1 4 Oeste 8 Oeste 0 1024.9 -1 59
2020-01-18 02:00:00 12.7 4 Oeste 8 Sudeste 0 1025.4 -0.4 62
2020-01-18 01:00:00 14.9 9 Sudoeste 13 Sudoeste 0 1025.5 -0.2 61
2020-01-18 00:00:00 14 4 Sudoeste 14 Sudoeste 0 1025.9 0.6 48
2020-01-17 23:00:00 14.5 12 Sudoeste 14 Sudoeste 0 1025.8 0.7 37
2020-01-17 22:00:00 15.2 6 Sudoeste 15 Oeste 0 1025.7 1.1 34
2020-01-17 21:00:00 15.6 9 Oeste 13 Sudoeste 0 1025.3 1 32
2020-01-17 20:00:00 15.2 4 Oeste 9 Sudoeste 0 1025.1 0.7 34
2020-01-17 19:00:00 16.3 7 Sudoeste 12 Oeste 0 1024.6 0.4 34
2020-01-17 18:00:00 17.9 3 Noroeste 13 Oeste 0 1024.3 0.2 34
2020-01-17 17:00:00 18.7 6 Noroeste 16 Noroeste 0 1024.4 -0.5 30
2020-01-17 16:00:00 19.6 5 Oeste 19 Sudoeste 0 1024.2 -1.7 25
2020-01-17 15:00:00 20.3 6 Oeste 27 Oeste 0 1024.1 -2.3 25
2020-01-17 14:00:00 20.3 10 Oeste 22 Oeste 0 1024.9 -1.5 28
2020-01-17 13:00:00 19.9 8 Noroeste 17 Noroeste 0 1025.9 0 30
2020-01-17 12:00:00 19.7 8 Oeste 21 Oeste 0 1026.4 1.3 30
2020-01-17 11:00:00 17 3 Este 19 Oeste 0 1026.4 1.7 48
2020-01-17 10:00:00 14.9 3 Sur 16 Oeste 0 1025.9 1.6 53
2020-01-17 09:00:00 10 5 Oeste 12 Noroeste 0 1025.1 1 61
2020-01-17 08:00:00 10.8 7 Noroeste 14 Noroeste 0 1024.7 0.9 59
2020-01-17 07:00:00 9.1 4 Oeste 11 Noroeste 0 1024.3 0.2 66
2020-01-17 06:00:00 10.7 6 Noroeste 11 Noroeste 0 1024.1 0 60
2020-01-17 05:00:00 11.7 6 Oeste 14 Oeste 0 1023.8 0.2 56
2020-01-17 04:00:00 12.5 10 Oeste 14 Oeste 0 1024.1 0.2 55
2020-01-17 03:00:00 10.3 4 Sudoeste 6 Sudoeste 0 1024.1 0.1 64
2020-01-17 02:00:00 10 2 Oeste 8 Oeste 0 1023.6 0 70
2020-01-17 01:00:00 11.1 4 Oeste 10 Oeste 0 1023.9 0.4 62
2020-01-17 00:00:00 11.7 7 Sudoeste 13 Oeste 0 1024 1 59
2020-01-16 23:00:00 11.9 9 Sudoeste 13 Sudoeste 0 1023.6 0.9 65
2020-01-16 22:00:00 11.7 4 Oeste 13 Oeste 0 1023.5 1.4 64
2020-01-16 21:00:00 13.1 7 Oeste 16 Oeste 0 1023 1.4 65
2020-01-16 20:00:00 12.3 3 Norte 11 Sudoeste 0 1022.7 1.5 74
2020-01-16 19:00:00 14 5 Oeste 12 Oeste 0 1022.1 1.3 68
2020-01-16 18:00:00 15.8 3 Noroeste 8 Este 0 1021.6 0.7 50
2020-01-16 17:00:00 16.1 6 Nordeste 12 Este 0 1021.2 0.1 49
2020-01-16 16:00:00 16.7 9 Este 14 Este 0 1020.8 -0.9 53
2020-01-16 15:00:00 17.3 9 Este 16 Este 0 1020.9 -1.6 51
2020-01-16 14:00:00 18.2 12 Este 17 Sudeste 0 1021.1 -1.6 41
2020-01-16 13:00:00 17.8 11 Este 15 Este 0 1021.7 -0.4 45
2020-01-16 12:00:00 17.3 8 Este 11 Este 0 1022.5 1 49
2020-01-16 11:00:00 15.3 3 Este 7 Este 0 1022.7 1.5 48
2020-01-16 10:00:00 12 4 Oeste 10 Oeste 0 1022.1 1.2 64
2020-01-16 09:00:00 9.7 8 Sudoeste 10 Sudoeste 0 1021.5 0.7 59
2020-01-16 08:00:00 8.9 5 Oeste 11 Noroeste 0 1021.2 0.1 59
2020-01-16 07:00:00 9.8 10 Sudoeste 13 Sudoeste 0 1020.9 -0.3 54
2020-01-16 06:00:00 8.7 5 Oeste 10 Oeste 0 1020.8 -0.1 61
2020-01-16 05:00:00 9.6 5 Oeste 13 Noroeste 0 1021.1 0.1 54
2020-01-16 04:00:00 9.1 10 Noroeste 14 Norte 0 1021.2 -0.2 63
2020-01-16 03:00:00 10.5 4 Oeste 9 Sudoeste 0 1020.9 -0.7 53
2020-01-16 02:00:00 10.6 4 Noroeste 8 Oeste 0 1021 -0.9 52
2020-01-16 01:00:00 10.3 4 Oeste 8 Sudoeste 0 1021.4 -0.6 62
2020-01-16 00:00:00 10 5 Oeste 8 Oeste 0 1021.6 -0.5 70
2020-01-15 23:00:00 10.8 5 Oeste 10 Sudoeste 0 1021.9 0 69
2020-01-15 22:00:00 11 4 Oeste 6 Noroeste 0 1022 0.3 71
2020-01-15 21:00:00 11.9 2 Noroeste 6 Sudoeste 0 1022.1 1 68
2020-01-15 20:00:00 12.8 5 Sudoeste 8 Sudoeste 0 1021.9 0.9 61
2020-01-15 19:00:00 14 5 Sudoeste 8 Sudeste 0 1021.7 1.3 65
2020-01-15 18:00:00 16.2 6 Sudeste 9 Sudeste 0 1021.1 1 67
2020-01-15 17:00:00 16.8 6 Sudeste 13 Este 0 1021 0.7 66
2020-01-15 16:00:00 18 7 Este 15 Nordeste 0 1020.4 -0.5 47
2020-01-15 15:00:00 19.3 6 Sudeste 15 Sudeste 0 1020.1 -1.4 45
2020-01-15 14:00:00 19.6 10 Sudeste 14 Sudeste 0 1020.3 -1.2 48
2020-01-15 13:00:00 17.7 5 Este 10 Este 0 1020.9 0.2 48
2020-01-15 12:00:00 16.8 4 Este 8 Sudeste 0 1021.5 1.6 52
2020-01-15 11:00:00 14.5 2 Norte 6 Norte 0 1021.5 2.1 65
2020-01-15 10:00:00 11.5 3 Noroeste 9 Sudoeste 0 1020.7 2 75
2020-01-15 09:00:00 10.3 5 Oeste 14 Nordeste 0 1019.9 1.8 71
2020-01-15 08:00:00 9.7 4 Norte 6 Norte 0 1019.4 1.5 73
2020-01-15 07:00:00 10.3 2 Oeste 9 Sudoeste 0 1018.7 0.5 68
2020-01-15 06:00:00 10 4 Oeste 9 Oeste 0 1018.1 -0.1 71
2020-01-15 05:00:00 9.8 2 Noroeste 6 Sudoeste 0 1017.9 -0.4 73
2020-01-15 04:00:00 9.7 4 Oeste 9 Norte 0 1018.2 -0.4 76
2020-01-15 03:00:00 9.7 6 Noroeste 9 Noroeste 0 1018.2 -0.6 77
2020-01-15 02:00:00 9.8 4 Noroeste 6 Noroeste 0 1018.3 -0.6 77
2020-01-15 01:00:00 10.3 5 Noroeste 8 Noroeste 0 1018.6 0 76
2020-01-15 00:00:00 10 4 Noroeste 14 Sudoeste 0 1018.8 0.3 82
2020-01-14 23:00:00 11 9 Sudoeste 14 Sudoeste 0 1018.9 0.8 76
2020-01-14 22:00:00 11.4 9 Sudoeste 11 Sudoeste 0 1018.6 0.6 71
2020-01-14 21:00:00 11.6 5 Oeste 12 Sudoeste 0 1018.5 1 68
2020-01-14 20:00:00 12.6 8 Sudoeste 17 Oeste 0 1018.1 0.7 65
2020-01-14 19:00:00 13.2 10 Sudoeste 14 Sudoeste 0 1018 0.8 77
2020-01-14 18:00:00 14.5 4 Oeste 14 Noroeste 0 1017.5 0.3 73
2020-01-14 17:00:00 15.5 6 Noroeste 14 Noroeste 0 1017.4 0 62
2020-01-14 16:00:00 15.4 8 Noroeste 14 Noroeste 0 1017.2 -0.8 65
2020-01-14 15:00:00 15.7 9 Nordeste 18 Norte 0 1017.2 -1.5 64
2020-01-14 14:00:00 16.2 11 Nordeste 17 Norte 0 1017.4 -1.4 56
2020-01-14 13:00:00 16.8 6 Este 12 Este 0 1018 -0.4 53
2020-01-14 12:00:00 15.7 4 Este 8 Sudeste 0 1018.7 0.5 61
2020-01-14 11:00:00 14.8 5 Sudeste 8 Sudeste 0 1018.8 0.9 65
2020-01-14 10:00:00 11.8 2 Oeste 6 Oeste 0 1018.4 0.8 73
2020-01-14 09:00:00 9.4 6 Oeste 9 Sudoeste 0 1018.2 1.1 81
2020-01-14 08:00:00 8.8 6 Oeste 12 Sudoeste 0 1017.9 0.8 84
2020-01-14 07:00:00 9.1 10 Sudoeste 12 Sudoeste 0 1017.6 0.4 81
2020-01-14 06:00:00 10.2 5 Sudoeste 9 Sudoeste 0 1017.1 -0.2 84
2020-01-14 05:00:00 10.6 6 Sudoeste 11 Sudoeste 0 1017.1 -0.3 87
2020-01-14 04:00:00 11.4 6 Sudoeste 15 Sudoeste 0 1017.2 -0.3 87
2020-01-14 03:00:00 10.9 9 Sudoeste 14 Sudoeste 0 1017.3 -0.7 87
2020-01-14 02:00:00 11.1 11 Sudoeste 18 Oeste 0 1017.4 -0.9 81
2020-01-14 01:00:00 9.7 10 Sudoeste 15 Sudoeste 0 1017.5 -1.4 82
2020-01-14 00:00:00 9 8 Sudoeste 11 Sudoeste 0 1018 -1.3 84
2020-01-13 23:00:00 9.8 5 Sudoeste 10 Sudoeste 0 1018.3 -1 84
2020-01-13 22:00:00 10.6 7 Sudoeste 12 Sudoeste 0 1018.9 -0.3 82
2020-01-13 21:00:00 10.5 8 Sudoeste 10 Sudoeste 0 1019.3 0.3 77
2020-01-13 20:00:00 11.5 7 Sudoeste 14 Oeste 0 1019.3 0.6 76
2020-01-13 19:00:00 12.4 8 Sudoeste 15 Oeste 0 1019.2 0.6 75
2020-01-13 18:00:00 14.1 6 Oeste 14 Oeste 0 1019 0.4 65
2020-01-13 17:00:00 14.4 5 Nordeste 16 Nordeste 0 1018.7 -0.5 64
2020-01-13 16:00:00 15.8 11 Este 20 Sudeste 0 1018.6 -1.7 60
2020-01-13 15:00:00 16.9 10 Sudeste 23 Este 0 1018.6 -2.9 50
2020-01-13 14:00:00 15.7 14 Sudeste 24 Sudeste 0 1019.2 -2.7 60
2020-01-13 13:00:00 16 14 Sudeste 22 Sudeste 0 1020.3 -1.2 59
2020-01-13 12:00:00 14.3 7 Sudeste 14 Sudeste 0 1021.5 0.3 62
2020-01-13 11:00:00 12.4 5 Este 14 Sudeste 0 1021.9 0.8 68
2020-01-13 10:00:00 9.6 0 Calma 4 Oeste 0 1021.5 0.6 84
2020-01-13 09:00:00 7.5 3 Noroeste 10 Noroeste 0 1021.2 0.2 87
2020-01-13 08:00:00 7.5 4 Noroeste 8 Noroeste 0 1021.1 -0.1 88
2020-01-13 07:00:00 8.8 5 Noroeste 8 Norte 0 1020.9 -1 85
2020-01-13 06:00:00 8.6 4 Norte 7 Norte 0 1021 -1.2 89
2020-01-13 05:00:00 9.4 0 Calma 5 Sudoeste 0 1021.2 -1.3 89
2020-01-13 04:00:00 10 4 Sudoeste 7 Sudoeste 0 1021.9 -1.3 90
2020-01-13 03:00:00 10 3 Sudoeste 8 Sudoeste 0 1022.2 -1.3 90
2020-01-13 02:00:00 10.2 5 Sur 8 Sur 0 1022.5 -0.7 91
2020-01-13 01:00:00 10.2 4 Sur 7 Sur 0 1023.2 0.2 91
2020-01-13 00:00:00 9.8 0 Calma 8 Sudoeste 0 1023.5 0.4 82
2020-01-12 23:00:00 9.8 5 Sudoeste 7 Sudoeste 0 1023.2 0 82
2020-01-12 22:00:00 10.8 3 Noroeste 7 Noroeste 0 1023 0 82
2020-01-12 21:00:00 11.6 2 Sudoeste 7 Sur 0 1023.1 0.6 81
2020-01-12 20:00:00 11.9 5 Sudoeste 8 Sur 0 1023.2 0.9 82
2020-01-12 19:00:00 12.8 4 Sudoeste 7 Sur 0 1023 0.6 81
2020-01-12 18:00:00 13.7 6 Este 13 Este 0 1022.5 0.1 78
2020-01-12 17:00:00 14.4 9 Nordeste 15 Nordeste 0 1022.3 -0.5 73
2020-01-12 16:00:00 14.8 10 Este 19 Este 0 1022.4 -1.2 72
2020-01-12 15:00:00 15 11 Este 19 Este 0 1022.4 -2.1 71
2020-01-12 14:00:00 15.8 7 Sudeste 17 Este 0 1022.8 -2 68
2020-01-12 13:00:00 16.4 7 Este 14 Nordeste 0 1023.6 -0.8 68
2020-01-12 12:00:00 15.3 7 Este 14 Este 0 1024.5 0.5 74
2020-01-12 11:00:00 14.9 4 Sudeste 9 Norte 0 1024.8 1.1 77
2020-01-12 10:00:00 12 3 Noroeste 6 Noroeste 0 1024.4 0.8 90
2020-01-12 09:00:00 9.8 3 Noroeste 8 Oeste 0 1024 0.4 93
2020-01-12 08:00:00 9.3 4 Oeste 10 Sudoeste 0 1023.7 -0.1 94
2020-01-12 07:00:00 9.3 6 Sudoeste 12 Sudoeste 0 1023.6 -0.6 94
2020-01-12 06:00:00 9.6 5 Oeste 10 Sudoeste 0 1023.6 -0.2 93
2020-01-12 05:00:00 10.1 8 Sudoeste 10 Sudoeste 0 1023.8 0.1 92
2020-01-12 04:00:00 10.6 4 Oeste 8 Noroeste 0 1024.2 0.2 91
2020-01-12 03:00:00 11.6 4 Norte 11 Sur 0 1023.8 -0.4 89
2020-01-12 02:00:00 12 8 Sur 21 Sudeste 0 1023.7 -0.5 89
2020-01-12 01:00:00 12.4 10 Sudeste 18 Este 0 1024 0.1 89
2020-01-12 00:00:00 12.5 4 Sudoeste 12 Este 0.2 1024.2 0.6 89
2020-01-11 23:00:00 12.9 15 Este 27 Este 0.4 1024.2 0.9 86
2020-01-11 22:00:00 13.2 15 Este 26 Este 0 1023.9 0.9 85
2020-01-11 21:00:00 12.9 18 Este 27 Nordeste 0.2 1023.6 1.3 90
2020-01-11 20:00:00 12.6 12 Este 28 Este 0.2 1023.3 1.4 89
2020-01-11 19:00:00 12.2 9 Nordeste 31 Este 1.4 1023 1.5 92
2020-01-11 18:00:00 12.6 10 Este 39 Nordeste 0.2 1022.3 1 88
2020-01-11 17:00:00 14 19 Nordeste 31 Este 0 1021.9 0.4 82
2020-01-11 16:00:00 14.2 19 Nordeste 26 Nordeste 0 1021.5 -0.7 79
2020-01-11 15:00:00 13.9 18 Nordeste 30 Este 0 1021.3 -1.5 80
2020-01-11 14:00:00 14.2 19 Nordeste 33 Nordeste 0 1021.5 -1.2 78
2020-01-11 13:00:00 12.9 21 Nordeste 43 Nordeste 0 1022.2 0.2 91
2020-01-11 12:00:00 13.1 27 Nordeste 47 Nordeste 0.2 1022.8 1.5 86
2020-01-11 11:00:00 13.3 24 Nordeste 46 Nordeste 0 1022.7 1.6 83
2020-01-11 10:00:00 13.2 26 Nordeste 44 Norte 0 1022 1.3 77
2020-01-11 09:00:00 13.3 24 Nordeste 39 Nordeste 0 1021.3 1 75
2020-01-11 08:00:00 12.9 17 Nordeste 33 Norte 0 1021.1 0.9 73
2020-01-11 07:00:00 12.8 18 Nordeste 34 Nordeste 0 1020.7 0.4 74
2020-01-11 06:00:00 13.1 15 Nordeste 26 Norte 0 1020.3 0.2 66
2020-01-11 05:00:00 11.9 5 Sudoeste 23 Nordeste 0 1020.2 0.3 85
2020-01-11 04:00:00 12.5 11 Nordeste 24 Nordeste 0 1020.3 0.1 83
2020-01-11 03:00:00 11.5 6 Oeste 12 Sudoeste 0 1020.1 -0.2 89
2020-01-11 02:00:00 11.8 3 Sudoeste 9 Sudoeste 0 1019.9 -0.5 90
2020-01-11 01:00:00 12.3 4 Sudoeste 10 Norte 0 1020.2 0.4 88
2020-01-11 00:00:00 12.6 5 Sudoeste 13 Oeste 1.6 1020.3 0.8 90
2020-01-10 23:00:00 12.9 11 Norte 18 Noroeste 2.2 1020.4 1.5 89
2020-01-10 22:00:00 14.3 8 Noroeste 19 Noroeste 0 1019.8 1.8 78
2020-01-10 21:00:00 14.5 4 Noroeste 18 Noroeste 0 1019.5 2.2 75
2020-01-10 20:00:00 14.2 5 Oeste 19 Noroeste 0 1018.9 1.9 73
2020-01-10 19:00:00 14.7 9 Noroeste 28 Noroeste 0 1018 1.2 64
2020-01-10 18:00:00 14.9 17 Noroeste 34 Noroeste 0 1017.3 0.6 68
2020-01-10 17:00:00 14.8 8 Oeste 33 Noroeste 0 1017 -0.1 72
2020-01-10 16:00:00 15.4 9 Oeste 33 Noroeste 0 1016.8 -1.4 70
2020-01-10 15:00:00 16.9 12 Oeste 36 Oeste 0 1016.7 -2.6 70
2020-01-10 14:00:00 15.7 10 Oeste 32 Oeste 0 1017.1 -2.6 76
2020-01-10 13:00:00 16.2 15 Oeste 35 Oeste 0 1018.2 -1 70
2020-01-10 12:00:00 15.2 12 Oeste 24 Oeste 0 1019.3 0.2 65
2020-01-10 11:00:00 15.3 12 Oeste 21 Oeste 0 1019.7 0.5 61
2020-01-10 10:00:00 11.8 2 Noroeste 9 Sudoeste 0 1019.2 0.2 81
2020-01-10 09:00:00 10.6 4 Oeste 9 Oeste 0 1019.1 0.1 81
2020-01-10 08:00:00 10.2 4 Sudoeste 10 Oeste 0 1019.2 0.1 86
2020-01-10 07:00:00 11.1 6 Sudoeste 10 Sudoeste 0 1019 -0.7 84
2020-01-10 06:00:00 11.6 9 Sudoeste 14 Oeste 0 1019 -0.5 86
2020-01-10 05:00:00 10.7 6 Sudoeste 13 Sudoeste 0 1019.1 -0.1 84
2020-01-10 04:00:00 9.8 5 Norte 13 Oeste 0 1019.7 0.3 83
2020-01-10 03:00:00 11.3 10 Oeste 14 Oeste 0 1019.5 -0.9 77
2020-01-10 02:00:00 10.2 3 Oeste 8 Noroeste 0 1019.2 -1.8 81
2020-01-10 01:00:00 11 8 Sudoeste 10 Sudoeste 0 1019.4 -2 79
2020-01-10 00:00:00 11.7 3 Oeste 9 Sudoeste 0 1020.4 -0.7 78
2020-01-09 23:00:00 12.4 7 Sudoeste 10 Sudoeste 0 1021 0.5 75
2020-01-09 22:00:00 12.3 7 Sudoeste 10 Sudoeste 0 1021.4 1 77
2020-01-09 21:00:00 12.4 3 Noroeste 10 Sudoeste 0 1021.1 0.7 77
2020-01-09 20:00:00 12.4 8 Sudoeste 9 Sudoeste 0 1020.5 0.4 78
2020-01-09 19:00:00 13.2 4 Oeste 8 Nordeste 0 1020.4 0.4 76
2020-01-09 18:00:00 14 8 Nordeste 13 Norte 0 1020.4 0.3 72
2020-01-09 17:00:00 14.9 5 Este 14 Nordeste 0 1020.1 -0.4 70
2020-01-09 16:00:00 15.5 6 Norte 14 Norte 0 1020 -1.4 62
2020-01-09 15:00:00 15.4 3 Nordeste 8 Este 0 1020.1 -2.2 58
2020-01-09 14:00:00 15.4 5 Sudeste 9 Sudeste 0 1020.5 -2.1 61
2020-01-09 13:00:00 15 2 Este 7 Noroeste 0 1021.4 -0.8 64
2020-01-09 12:00:00 14.1 3 Noroeste 8 Noroeste 0 1022.3 0.6 68
2020-01-09 11:00:00 13.3 3 Noroeste 8 Norte 0 1022.6 1.1 74
2020-01-09 10:00:00 11.9 2 Norte 8 Norte 0 1022.2 0.8 83
2020-01-09 09:00:00 11.4 3 Noroeste 14 Norte 0 1021.7 0.4 84
2020-01-09 08:00:00 11.1 5 Oeste 7 Sudoeste 0 1021.5 0 86
2020-01-09 07:00:00 10.6 4 Oeste 9 Norte 0 1021.4 -0.2 89
2020-01-09 06:00:00 10.4 4 Noroeste 6 Oeste 0 1021.3 -0.6 88
2020-01-09 05:00:00 10.9 5 Sudoeste 7 Sudoeste 0 1021.5 -0.7 87
2020-01-09 04:00:00 11.4 4 Oeste 5 Noroeste 0 1021.6 -0.8 85
2020-01-09 03:00:00 11.3 0 Calma 6 Norte 0 1021.9 -0.6 85
2020-01-09 02:00:00 11.6 4 Sudoeste 6 Sudeste 0 1022.2 -0.5 84
2020-01-09 01:00:00 11.3 3 Noroeste 9 Sudoeste 0 1022.4 -0.3 87
2020-01-09 00:00:00 11.2 5 Sudoeste 7 Sudoeste 0 1022.5 0.1 87
2020-01-08 23:00:00 11.9 6 Sudeste 9 Sudeste 0 1022.7 0.6 86
2020-01-08 22:00:00 11.8 6 Sudeste 10 Sudeste 0 1022.7 0.9 87
2020-01-08 21:00:00 11.8 5 Sudeste 11 Este 0 1022.4 0.6 85
2020-01-08 20:00:00 12.2 6 Sudeste 11 Este 0 1022.1 0.8 83
2020-01-08 19:00:00 12.9 8 Este 15 Este 0 1021.8 0.7 82
2020-01-08 18:00:00 13.8 11 Este 16 Este 0 1021.8 0.7 84
2020-01-08 17:00:00 14.6 12 Este 18 Este 0 1021.3 0.3 74
2020-01-08 16:00:00 15.6 9 Este 14 Este 0 1021.1 -0.5 64
2020-01-08 15:00:00 15.5 9 Nordeste 16 Norte 0 1021.1 -1.4 59
2020-01-08 14:00:00 15.7 7 Nordeste 14 Nordeste 0 1021 -2 59
2020-01-08 13:00:00 15.1 8 Nordeste 12 Este 0 1021.6 -1 60
2020-01-08 12:00:00 15.6 3 Nordeste 8 Nordeste 0 1022.5 -0.1 57
2020-01-08 11:00:00 13.5 3 Este 5 Este 0 1023 0.8 70
2020-01-08 10:00:00 10.3 2 Sur 8 Sudoeste 0 1022.6 0.7 79
2020-01-08 09:00:00 8 5 Oeste 9 Sudoeste 0 1022.6 1 84
2020-01-08 08:00:00 7.6 5 Oeste 9 Sudoeste 0 1022.2 0.3 84
2020-01-08 07:00:00 7.9 6 Sudoeste 9 Oeste 0 1021.9 -0.3 83
2020-01-08 06:00:00 7.8 5 Noroeste 11 Sudoeste 0 1021.6 -0.6 88
2020-01-08 05:00:00 8.3 9 Sudoeste 12 Oeste 0 1021.9 -0.6 85
2020-01-08 04:00:00 8.7 5 Oeste 11 Sudoeste 0 1022.2 -0.7 84
2020-01-08 03:00:00 9 8 Sudoeste 11 Sudoeste 0 1022.2 -1.3 83
2020-01-08 02:00:00 8.8 3 Oeste 10 Sudoeste 0 1022.5 -1.2 88
2020-01-08 01:00:00 9.6 4 Oeste 10 Noroeste 0 1022.9 -1.2 87
2020-01-08 00:00:00 9.9 5 Noroeste 9 Norte 0 1023.5 -0.6 85
2020-01-07 23:00:00 11.3 6 Sur 10 Sur 0 1023.7 0.1 84
2020-01-07 22:00:00 11.9 5 Sur 8 Sudoeste 0 1024.1 0.9 84
2020-01-07 21:00:00 11.5 5 Sudoeste 7 Sudoeste 0 1024.1 1.1 85
2020-01-07 20:00:00 11.6 5 Este 10 Sur 0 1023.6 0.4 83
2020-01-07 19:00:00 12.4 7 Sudeste 13 Sudeste 0 1023.2 0.1 81
2020-01-07 18:00:00 13.4 9 Sudeste 19 Este 0 1023 -0.1 78
2020-01-07 17:00:00 14 12 Este 21 Este 0 1023.2 -0.2 74
2020-01-07 16:00:00 14.9 14 Este 20 Este 0 1023.1 -1.2 68
2020-01-07 15:00:00 15 14 Este 19 Nordeste 0 1023.1 -1.9 65
2020-01-07 14:00:00 15.5 14 Este 19 Este 0 1023.4 -2 60
2020-01-07 13:00:00 16 11 Este 21 Sudeste 0 1024.3 -0.9 60
2020-01-07 12:00:00 16.1 12 Sudeste 20 Sur 0 1025 0.3 62
2020-01-07 11:00:00 14.7 8 Sudeste 14 Sur 0 1025.4 1 68
2020-01-07 10:00:00 11 4 Norte 9 Norte 0 1025.2 1.4 83
2020-01-07 09:00:00 9.1 3 Noroeste 7 Sudoeste 0 1024.7 1.6 84
2020-01-07 08:00:00 10 3 Noroeste 7 Sudoeste 0 1024.4 1.1 81
2020-01-07 07:00:00 9.6 6 Sudoeste 8 Sudoeste 0 1023.8 0.4 84
2020-01-07 06:00:00 9 3 Noroeste 7 Noroeste 0 1023.1 -0.4 84
2020-01-07 05:00:00 9.8 6 Noroeste 10 Noroeste 0 1023.3 -0.6 81
2020-01-07 04:00:00 10.1 5 Noroeste 9 Noroeste 0 1023.4 -0.6 80
2020-01-07 03:00:00 11 5 Oeste 7 Noroeste 0 1023.5 -0.5 79
2020-01-07 02:00:00 11.6 5 Oeste 8 Norte 0 1023.9 -0.1 79
2020-01-07 01:00:00 11.6 3 Norte 10 Sudoeste 0 1024 0.4 80
2020-01-07 00:00:00 12.1 6 Sudoeste 8 Sudoeste 0 1024 0.8 80
2020-01-06 23:00:00 11.9 4 Oeste 8 Oeste 0 1024 1.3 80
2020-01-06 22:00:00 11.7 2 Noroeste 8 Oeste 0 1023.6 1.6 80
2020-01-06 21:00:00 12.6 3 Noroeste 4 Norte 0 1023.2 1.5 76
2020-01-06 20:00:00 12.9 3 Sudoeste 8 Oeste 0 1022.7 1.2 76
2020-01-06 19:00:00 13 6 Sudoeste 10 Sudeste 0 1022 0.6 73
2020-01-06 18:00:00 14.2 7 Sudeste 14 Este 0 1021.7 0.5 69
2020-01-06 17:00:00 15.6 8 Sudeste 15 Sudeste 0 1021.5 -0.3 64
2020-01-06 16:00:00 16.3 8 Sudeste 17 Este 0 1021.4 -1 61
2020-01-06 15:00:00 16.3 8 Este 18 Nordeste 0 1021.2 -1.8 59
2020-01-06 14:00:00 16.5 8 Sudeste 14 Sudeste 0 1021.8 -1.5 58
2020-01-06 13:00:00 16.1 8 Sudeste 15 Sudeste 0 1022.4 -0.4 58
2020-01-06 12:00:00 15.2 7 Sudeste 13 Sudeste 0 1023 0.9 67
2020-01-06 11:00:00 14.5 7 Este 12 Este 0 1023.3 1.5 69
2020-01-06 10:00:00 13.8 4 Sudeste 8 Sudeste 0 1022.8 1.6 72